sensor_id;sensor_type;location;lat;lon;timestamp;pressure;altitude;pressure_sealevel;temperature;humidity
73103;BME280;61294;65.988;29.172;2023-04-05T00:01:26;99603.34;;;-9.59;69.99
73103;BME280;61294;65.988;29.172;2023-04-05T00:03:57;99643.25;;;-9.41;70.02
73103;BME280;61294;65.988;29.172;2023-04-05T00:06:27;99641.41;;;-9.52;69.79
73103;BME280;61294;65.988;29.172;2023-04-05T00:08:54;99599.25;;;-9.67;70.02
73103;BME280;61294;65.988;29.172;2023-04-05T00:11:21;99648.91;;;-9.54;70.02
73103;BME280;61294;65.988;29.172;2023-04-05T00:13:47;99641.59;;;-9.59;69.73
73103;BME280;61294;65.988;29.172;2023-04-05T00:16:17;99593.09;;;-9.89;69.10
73103;BME280;61294;65.988;29.172;2023-04-05T00:18:44;99647.69;;;-9.67;70.24
73103;BME280;61294;65.988;29.172;2023-04-05T00:21:18;99648.66;;;-9.76;69.80
73103;BME280;61294;65.988;29.172;2023-04-05T00:23:47;99639.81;;;-9.79;70.27
73103;BME280;61294;65.988;29.172;2023-04-05T00:26:13;99615.78;;;-9.92;69.89
73103;BME280;61294;65.988;29.172;2023-04-05T00:28:39;99649.03;;;-9.90;69.85
73103;BME280;61294;65.988;29.172;2023-04-05T00:31:05;99646.97;;;-9.94;69.68
73103;BME280;61294;65.988;29.172;2023-04-05T00:33:31;99644.28;;;-10.24;68.98
73103;BME280;61294;65.988;29.172;2023-04-05T00:35:56;99634.03;;;-10.34;69.00
73103;BME280;61294;65.988;29.172;2023-04-05T00:38:22;99648.38;;;-10.07;68.71
73103;BME280;61294;65.988;29.172;2023-04-05T00:40:48;99638.66;;;-10.11;68.29
73103;BME280;61294;65.988;29.172;2023-04-05T00:43:14;99635.00;;;-10.23;69.15
73103;BME280;61294;65.988;29.172;2023-04-05T00:45:41;99653.13;;;-10.20;70.03
73103;BME280;61294;65.988;29.172;2023-04-05T00:48:07;99652.06;;;-10.22;70.41
73103;BME280;61294;65.988;29.172;2023-04-05T00:50:33;99643.00;;;-10.10;71.10
73103;BME280;61294;65.988;29.172;2023-04-05T00:52:59;99653.66;;;-10.14;70.14
73103;BME280;61294;65.988;29.172;2023-04-05T00:55:26;99634.13;;;-10.32;70.17
73103;BME280;61294;65.988;29.172;2023-04-05T00:57:52;99647.56;;;-10.25;69.57
73103;BME280;61294;65.988;29.172;2023-04-05T01:00:20;99651.84;;;-10.34;69.16
73103;BME280;61294;65.988;29.172;2023-04-05T01:03:02;99647.38;;;-10.36;68.85
73103;BME280;61294;65.988;29.172;2023-04-05T01:05:46;99626.75;;;-10.48;68.71
73103;BME280;61294;65.988;29.172;2023-04-05T01:08:17;99614.53;;;-10.61;68.99
73103;BME280;61294;65.988;29.172;2023-04-05T01:10:50;99638.94;;;-10.63;68.79
73103;BME280;61294;65.988;29.172;2023-04-05T01:13:19;99640.03;;;-10.70;68.53
73103;BME280;61294;65.988;29.172;2023-04-05T01:15:45;99637.50;;;-10.79;69.07
73103;BME280;61294;65.988;29.172;2023-04-05T01:18:14;99633.59;;;-10.75;69.69
73103;BME280;61294;65.988;29.172;2023-04-05T01:20:45;99641.25;;;-10.84;70.06
73103;BME280;61294;65.988;29.172;2023-04-05T01:23:26;99628.72;;;-11.00;70.32
73103;BME280;61294;65.988;29.172;2023-04-05T01:29:24;99635.88;;;-10.87;69.95
73103;BME280;61294;65.988;29.172;2023-04-05T01:34:51;99636.47;;;-10.89;69.62
73103;BME280;61294;65.988;29.172;2023-04-05T01:37:22;99613.00;;;-11.04;69.48
73103;BME280;61294;65.988;29.172;2023-04-05T01:39:51;99633.50;;;-10.94;69.28
73103;BME280;61294;65.988;29.172;2023-04-05T01:42:23;99634.72;;;-10.99;70.49
73103;BME280;61294;65.988;29.172;2023-04-05T01:44:53;99638.03;;;-11.09;70.59
73103;BME280;61294;65.988;29.172;2023-04-05T01:47:19;99635.19;;;-11.21;70.99
73103;BME280;61294;65.988;29.172;2023-04-05T01:49:46;99644.31;;;-11.23;70.77
73103;BME280;61294;65.988;29.172;2023-04-05T01:52:12;99644.47;;;-11.30;70.68
73103;BME280;61294;65.988;29.172;2023-04-05T01:54:37;99644.47;;;-11.30;70.56
73103;BME280;61294;65.988;29.172;2023-04-05T01:57:04;99645.09;;;-11.24;70.21
73103;BME280;61294;65.988;29.172;2023-04-05T01:59:30;99643.56;;;-11.22;70.32
73103;BME280;61294;65.988;29.172;2023-04-05T02:01:56;99651.22;;;-11.22;70.00
73103;BME280;61294;65.988;29.172;2023-04-05T02:04:22;99653.91;;;-11.29;69.95
73103;BME280;61294;65.988;29.172;2023-04-05T02:06:48;99640.91;;;-11.41;68.93
73103;BME280;61294;65.988;29.172;2023-04-05T02:09:13;99636.44;;;-11.52;69.52
73103;BME280;61294;65.988;29.172;2023-04-05T02:11:39;99659.44;;;-11.42;69.94
73103;BME280;61294;65.988;29.172;2023-04-05T02:14:05;99654.38;;;-11.51;70.38
73103;BME280;61294;65.988;29.172;2023-04-05T02:16:31;99661.72;;;-11.54;70.18
73103;BME280;61294;65.988;29.172;2023-04-05T02:18:58;99668.25;;;-11.56;70.89
73103;BME280;61294;65.988;29.172;2023-04-05T02:21:24;99664.69;;;-11.58;70.96
73103;BME280;61294;65.988;29.172;2023-04-05T02:23:54;99647.94;;;-11.65;70.77
73103;BME280;61294;65.988;29.172;2023-04-05T02:26:20;99666.50;;;-11.57;70.68
73103;BME280;61294;65.988;29.172;2023-04-05T02:28:46;99660.66;;;-11.65;70.68
73103;BME280;61294;65.988;29.172;2023-04-05T02:31:13;99663.78;;;-11.76;70.00
73103;BME280;61294;65.988;29.172;2023-04-05T02:33:39;99665.09;;;-11.97;70.31
73103;BME280;61294;65.988;29.172;2023-04-05T02:36:06;99673.34;;;-12.00;70.65
73103;BME280;61294;65.988;29.172;2023-04-05T02:38:34;99672.53;;;-12.25;69.07
73103;BME280;61294;65.988;29.172;2023-04-05T02:41:00;99668.06;;;-12.19;70.12
73103;BME280;61294;65.988;29.172;2023-04-05T02:43:26;99670.16;;;-12.15;69.62
73103;BME280;61294;65.988;29.172;2023-04-05T02:45:52;99662.09;;;-12.10;69.36
73103;BME280;61294;65.988;29.172;2023-04-05T02:48:18;99651.03;;;-12.20;70.21
73103;BME280;61294;65.988;29.172;2023-04-05T02:50:48;99649.53;;;-12.18;69.77
73103;BME280;61294;65.988;29.172;2023-04-05T02:53:14;99669.13;;;-12.17;69.54
73103;BME280;61294;65.988;29.172;2023-04-05T02:55:40;99677.31;;;-12.19;69.64
73103;BME280;61294;65.988;29.172;2023-04-05T02:58:06;99676.59;;;-12.18;69.52
73103;BME280;61294;65.988;29.172;2023-04-05T03:00:32;99654.88;;;-12.32;69.34
73103;BME280;61294;65.988;29.172;2023-04-05T03:02:58;99680.38;;;-12.48;69.22
73103;BME280;61294;65.988;29.172;2023-04-05T03:05:25;99677.44;;;-12.35;69.54
73103;BME280;61294;65.988;29.172;2023-04-05T03:07:51;99669.81;;;-12.35;69.58
73103;BME280;61294;65.988;29.172;2023-04-05T03:10:18;99632.41;;;-12.54;69.64
73103;BME280;61294;65.988;29.172;2023-04-05T03:12:47;99674.53;;;-12.47;69.50
73103;BME280;61294;65.988;29.172;2023-04-05T03:15:13;99677.53;;;-12.76;69.53
73103;BME280;61294;65.988;29.172;2023-04-05T03:17:39;99678.09;;;-12.78;69.41
73103;BME280;61294;65.988;29.172;2023-04-05T03:20:09;99670.81;;;-12.75;69.86
73103;BME280;61294;65.988;29.172;2023-04-05T03:22:35;99663.56;;;-12.63;69.76
73103;BME280;61294;65.988;29.172;2023-04-05T03:25:01;99675.56;;;-12.54;69.74
73103;BME280;61294;65.988;29.172;2023-04-05T03:27:27;99683.41;;;-12.68;70.30
73103;BME280;61294;65.988;29.172;2023-04-05T03:29:54;99664.72;;;-13.02;70.27
73103;BME280;61294;65.988;29.172;2023-04-05T03:32:19;99679.97;;;-12.93;70.64
73103;BME280;61294;65.988;29.172;2023-04-05T03:34:45;99690.84;;;-12.70;70.49
73103;BME280;61294;65.988;29.172;2023-04-05T03:37:11;99688.22;;;-12.62;70.18
73103;BME280;61294;65.988;29.172;2023-04-05T03:39:37;99699.00;;;-12.56;70.28
73103;BME280;61294;65.988;29.172;2023-04-05T03:42:03;99690.03;;;-12.53;70.65
73103;BME280;61294;65.988;29.172;2023-04-05T03:44:29;99696.91;;;-12.52;70.74
73103;BME280;61294;65.988;29.172;2023-04-05T03:46:55;99701.06;;;-12.61;70.93
73103;BME280;61294;65.988;29.172;2023-04-05T03:49:21;99639.34;;;-13.02;70.71
73103;BME280;61294;65.988;29.172;2023-04-05T03:51:47;99709.38;;;-12.71;70.80
73103;BME280;61294;65.988;29.172;2023-04-05T03:54:13;99686.38;;;-12.72;70.60
73103;BME280;61294;65.988;29.172;2023-04-05T03:56:39;99704.22;;;-12.55;70.95
73103;BME280;61294;65.988;29.172;2023-04-05T03:59:05;99687.31;;;-12.63;70.09
73103;BME280;61294;65.988;29.172;2023-04-05T04:01:31;99700.94;;;-12.54;69.90
73103;BME280;61294;65.988;29.172;2023-04-05T04:03:57;99702.88;;;-12.51;69.27
73103;BME280;61294;65.988;29.172;2023-04-05T04:06:25;99681.97;;;-12.82;68.74
73103;BME280;61294;65.988;29.172;2023-04-05T04:08:51;99705.66;;;-12.65;69.31
73103;BME280;61294;65.988;29.172;2023-04-05T04:11:17;99701.75;;;-12.71;69.05
73103;BME280;61294;65.988;29.172;2023-04-05T04:13:42;99708.84;;;-12.59;69.23
73103;BME280;61294;65.988;29.172;2023-04-05T04:16:10;99710.19;;;-12.54;69.10
73103;BME280;61294;65.988;29.172;2023-04-05T04:18:36;99710.22;;;-12.45;68.76
73103;BME280;61294;65.988;29.172;2023-04-05T04:21:03;99678.75;;;-12.72;68.04
73103;BME280;61294;65.988;29.172;2023-04-05T04:23:32;99723.56;;;-12.64;68.16
73103;BME280;61294;65.988;29.172;2023-04-05T04:25:59;99698.44;;;-12.70;67.79
73103;BME280;61294;65.988;29.172;2023-04-05T04:28:27;99707.06;;;-12.52;67.96
73103;BME280;61294;65.988;29.172;2023-04-05T04:30:53;99712.59;;;-12.47;68.17
73103;BME280;61294;65.988;29.172;2023-04-05T04:33:19;99729.06;;;-12.43;68.33
73103;BME280;61294;65.988;29.172;2023-04-05T04:35:45;99732.88;;;-12.56;68.51
73103;BME280;61294;65.988;29.172;2023-04-05T04:38:13;99729.06;;;-12.43;69.32
73103;BME280;61294;65.988;29.172;2023-04-05T04:40:43;99719.22;;;-12.40;69.13
73103;BME280;61294;65.988;29.172;2023-04-05T04:43:15;99712.22;;;-12.34;68.92
73103;BME280;61294;65.988;29.172;2023-04-05T04:45:42;99734.72;;;-12.12;69.15
73103;BME280;61294;65.988;29.172;2023-04-05T04:48:11;99732.06;;;-12.05;69.07
73103;BME280;61294;65.988;29.172;2023-04-05T04:50:39;99728.44;;;-12.07;69.18
73103;BME280;61294;65.988;29.172;2023-04-05T04:53:05;99742.53;;;-12.02;68.61
73103;BME280;61294;65.988;29.172;2023-04-05T04:55:31;99735.50;;;-11.96;68.71
73103;BME280;61294;65.988;29.172;2023-04-05T04:57:58;99741.66;;;-11.85;69.55
73103;BME280;61294;65.988;29.172;2023-04-05T05:00:24;99739.41;;;-11.82;69.49
73103;BME280;61294;65.988;29.172;2023-04-05T05:02:54;99729.97;;;-11.83;69.34
73103;BME280;61294;65.988;29.172;2023-04-05T05:05:20;99740.31;;;-11.82;69.81
73103;BME280;61294;65.988;29.172;2023-04-05T05:07:49;99739.44;;;-11.73;69.61
73103;BME280;61294;65.988;29.172;2023-04-05T05:10:17;99743.34;;;-11.68;69.51
73103;BME280;61294;65.988;29.172;2023-04-05T05:12:43;99741.25;;;-11.64;69.37
73103;BME280;61294;65.988;29.172;2023-04-05T05:15:10;99753.69;;;-11.58;69.26
73103;BME280;61294;65.988;29.172;2023-04-05T05:17:36;99743.06;;;-11.45;69.36
73103;BME280;61294;65.988;29.172;2023-04-05T05:20:02;99747.13;;;-11.38;69.29
73103;BME280;61294;65.988;29.172;2023-04-05T05:22:38;99749.06;;;-11.36;69.10
73103;BME280;61294;65.988;29.172;2023-04-05T05:25:05;99744.44;;;-11.22;68.98
73103;BME280;61294;65.988;29.172;2023-04-05T05:27:31;99736.66;;;-11.15;68.97
73103;BME280;61294;65.988;29.172;2023-04-05T05:30:00;99744.44;;;-11.05;68.94
73103;BME280;61294;65.988;29.172;2023-04-05T05:32:26;99748.03;;;-10.94;69.13
73103;BME280;61294;65.988;29.172;2023-04-05T05:34:52;99741.28;;;-10.85;68.84
73103;BME280;61294;65.988;29.172;2023-04-05T05:37:18;99751.88;;;-10.80;68.98
73103;BME280;61294;65.988;29.172;2023-04-05T05:39:43;99735.25;;;-10.68;69.26
73103;BME280;61294;65.988;29.172;2023-04-05T05:42:10;99742.88;;;-10.59;69.31
73103;BME280;61294;65.988;29.172;2023-04-05T05:44:35;99724.31;;;-10.58;69.17
73103;BME280;61294;65.988;29.172;2023-04-05T05:47:02;99740.44;;;-10.49;69.36
73103;BME280;61294;65.988;29.172;2023-04-05T05:49:28;99736.28;;;-10.48;70.78
73103;BME280;61294;65.988;29.172;2023-04-05T05:51:54;99722.63;;;-10.40;71.09
73103;BME280;61294;65.988;29.172;2023-04-05T05:54:21;99732.44;;;-10.26;71.48
73103;BME280;61294;65.988;29.172;2023-04-05T05:56:46;99708.72;;;-10.25;70.97
73103;BME280;61294;65.988;29.172;2023-04-05T05:59:12;99742.63;;;-9.98;70.91
73103;BME280;61294;65.988;29.172;2023-04-05T06:01:38;99734.84;;;-9.99;70.86
73103;BME280;61294;65.988;29.172;2023-04-05T06:04:09;99746.66;;;-9.91;70.73
73103;BME280;61294;65.988;29.172;2023-04-05T06:06:35;99755.56;;;-9.68;72.26
73103;BME280;61294;65.988;29.172;2023-04-05T06:09:00;99737.97;;;-9.65;71.70
73103;BME280;61294;65.988;29.172;2023-04-05T06:11:26;99750.16;;;-9.44;73.98
73103;BME280;61294;65.988;29.172;2023-04-05T06:13:52;99741.47;;;-9.27;75.05
73103;BME280;61294;65.988;29.172;2023-04-05T06:16:21;99701.13;;;-9.50;74.33
73103;BME280;61294;65.988;29.172;2023-04-05T06:18:48;99751.81;;;-9.25;73.30
73103;BME280;61294;65.988;29.172;2023-04-05T06:21:14;99748.09;;;-9.10;73.77
73103;BME280;61294;65.988;29.172;2023-04-05T06:23:43;99723.31;;;-9.11;73.37
73103;BME280;61294;65.988;29.172;2023-04-05T06:26:21;99761.50;;;-8.35;78.35
73103;BME280;61294;65.988;29.172;2023-04-05T06:28:49;99762.47;;;-8.13;78.95
73103;BME280;61294;65.988;29.172;2023-04-05T06:31:15;99750.91;;;-7.79;80.22
73103;BME280;61294;65.988;29.172;2023-04-05T06:33:42;99758.59;;;-7.58;80.32
73103;BME280;61294;65.988;29.172;2023-04-05T06:36:09;99764.63;;;-7.48;80.55
73103;BME280;61294;65.988;29.172;2023-04-05T06:38:35;99757.47;;;-7.31;81.79
73103;BME280;61294;65.988;29.172;2023-04-05T06:41:01;99772.44;;;-7.05;81.01
73103;BME280;61294;65.988;29.172;2023-04-05T06:43:27;99765.91;;;-6.91;80.20
73103;BME280;61294;65.988;29.172;2023-04-05T06:45:57;99763.94;;;-6.73;79.93
73103;BME280;61294;65.988;29.172;2023-04-05T06:48:23;99759.41;;;-6.55;80.31
73103;BME280;61294;65.988;29.172;2023-04-05T06:50:59;99762.00;;;-6.65;79.28
73103;BME280;61294;65.988;29.172;2023-04-05T06:53:26;99757.56;;;-6.46;79.12
73103;BME280;61294;65.988;29.172;2023-04-05T06:55:53;99757.75;;;-6.22;78.87
73103;BME280;61294;65.988;29.172;2023-04-05T06:58:21;99760.88;;;-6.04;78.60
73103;BME280;61294;65.988;29.172;2023-04-05T07:00:48;99754.34;;;-5.88;78.12
73103;BME280;61294;65.988;29.172;2023-04-05T07:03:15;99751.72;;;-5.78;78.29
73103;BME280;61294;65.988;29.172;2023-04-05T07:05:41;99749.50;;;-5.74;77.06
73103;BME280;61294;65.988;29.172;2023-04-05T07:08:14;99747.56;;;-5.76;77.49
73103;BME280;61294;65.988;29.172;2023-04-05T07:10:40;99741.94;;;-5.60;76.73
73103;BME280;61294;65.988;29.172;2023-04-05T07:13:06;99751.44;;;-5.59;75.70
73103;BME280;61294;65.988;29.172;2023-04-05T07:15:31;99756.97;;;-5.43;76.40
73103;BME280;61294;65.988;29.172;2023-04-05T07:17:57;99749.44;;;-5.17;75.98
73103;BME280;61294;65.988;29.172;2023-04-05T07:20:23;99725.75;;;-5.13;75.56
73103;BME280;61294;65.988;29.172;2023-04-05T07:22:49;99752.84;;;-4.71;75.19
73103;BME280;61294;65.988;29.172;2023-04-05T07:25:14;99746.63;;;-4.63;74.60
73103;BME280;61294;65.988;29.172;2023-04-05T07:27:40;99755.88;;;-4.41;75.48
73103;BME280;61294;65.988;29.172;2023-04-05T07:30:16;99728.56;;;-4.27;75.55
73103;BME280;61294;65.988;29.172;2023-04-05T07:32:42;99755.72;;;-4.07;74.10
73103;BME280;61294;65.988;29.172;2023-04-05T07:35:08;99749.66;;;-3.96;73.93
73103;BME280;61294;65.988;29.172;2023-04-05T07:37:33;99745.03;;;-3.88;74.40
73103;BME280;61294;65.988;29.172;2023-04-05T07:40:00;99741.06;;;-3.71;74.81
73103;BME280;61294;65.988;29.172;2023-04-05T07:42:26;99742.78;;;-3.58;74.64
73103;BME280;61294;65.988;29.172;2023-04-05T07:44:52;99757.22;;;-3.49;73.36
73103;BME280;61294;65.988;29.172;2023-04-05T07:47:18;99760.94;;;-3.57;73.93
73103;BME280;61294;65.988;29.172;2023-04-05T07:49:44;99747.84;;;-3.35;75.23
73103;BME280;61294;65.988;29.172;2023-04-05T07:52:10;99757.34;;;-2.95;75.30
73103;BME280;61294;65.988;29.172;2023-04-05T07:54:36;99753.63;;;-2.60;74.72
73103;BME280;61294;65.988;29.172;2023-04-05T07:57:17;99746.78;;;-2.46;74.52
73103;BME280;61294;65.988;29.172;2023-04-05T07:59:43;99755.28;;;-2.07;73.32
73103;BME280;61294;65.988;29.172;2023-04-05T08:02:09;99746.66;;;-2.08;72.16
73103;BME280;61294;65.988;29.172;2023-04-05T08:04:35;99750.56;;;-1.86;72.03
73103;BME280;61294;65.988;29.172;2023-04-05T08:07:00;99751.34;;;-1.45;71.60
73103;BME280;61294;65.988;29.172;2023-04-05T08:09:26;99754.03;;;-1.29;69.96
73103;BME280;61294;65.988;29.172;2023-04-05T08:11:52;99755.69;;;-0.86;68.51
73103;BME280;61294;65.988;29.172;2023-04-05T08:14:17;99762.16;;;-0.33;66.82
73103;BME280;61294;65.988;29.172;2023-04-05T08:16:43;99726.25;;;0.21;65.62
73103;BME280;61294;65.988;29.172;2023-04-05T08:19:09;99757.69;;;0.93;63.17
73103;BME280;61294;65.988;29.172;2023-04-05T08:21:35;99755.41;;;0.99;61.99
73103;BME280;61294;65.988;29.172;2023-04-05T08:24:01;99752.28;;;1.23;62.22
73103;BME280;61294;65.988;29.172;2023-04-05T08:26:26;99761.25;;;1.12;61.71
73103;BME280;61294;65.988;29.172;2023-04-05T08:28:52;99767.34;;;1.30;60.42
73103;BME280;61294;65.988;29.172;2023-04-05T08:31:18;99761.50;;;1.52;59.74
73103;BME280;61294;65.988;29.172;2023-04-05T08:33:45;99760.25;;;1.44;59.35
73103;BME280;61294;65.988;29.172;2023-04-05T08:36:12;99753.81;;;1.54;59.32
73103;BME280;61294;65.988;29.172;2023-04-05T08:38:39;99773.78;;;1.91;59.06
73103;BME280;61294;65.988;29.172;2023-04-05T08:41:13;99765.31;;;2.33;56.47
73103;BME280;61294;65.988;29.172;2023-04-05T08:43:59;99772.94;;;1.92;57.24
73103;BME280;61294;65.988;29.172;2023-04-05T08:46:29;99769.72;;;2.34;56.79
73103;BME280;61294;65.988;29.172;2023-04-05T08:48:56;99780.19;;;2.94;55.47
73103;BME280;61294;65.988;29.172;2023-04-05T08:51:24;99771.41;;;2.92;56.37
73103;BME280;61294;65.988;29.172;2023-04-05T08:53:53;99781.88;;;3.54;53.55
73103;BME280;61294;65.988;29.172;2023-04-05T08:56:30;99775.91;;;3.35;53.96
73103;BME280;61294;65.988;29.172;2023-04-05T09:01:23;99780.72;;;5.06;53.96
73103;BME280;61294;65.988;29.172;2023-04-05T09:03:51;99776.75;;;5.17;51.77
73103;BME280;61294;65.988;29.172;2023-04-05T09:06:18;99773.66;;;6.96;48.36
73103;BME280;61294;65.988;29.172;2023-04-05T09:08:45;99768.44;;;13.68;39.07
73103;BME280;61294;65.988;29.172;2023-04-05T09:11:11;99762.63;;;15.40;34.77
73103;BME280;61294;65.988;29.172;2023-04-05T09:13:38;99773.94;;;16.64;30.45
73103;BME280;61294;65.988;29.172;2023-04-05T09:16:03;99767.97;;;17.20;28.84
73103;BME280;61294;65.988;29.172;2023-04-05T09:18:30;99759.88;;;18.82;27.82
73103;BME280;61294;65.988;29.172;2023-04-05T09:21:01;99766.59;;;17.53;27.05
73103;BME280;61294;65.988;29.172;2023-04-05T09:23:28;99766.63;;;16.85;27.36
73103;BME280;61294;65.988;29.172;2023-04-05T09:25:54;99769.28;;;17.52;26.93
73103;BME280;61294;65.988;29.172;2023-04-05T09:28:19;99768.09;;;19.56;25.78
73103;BME280;61294;65.988;29.172;2023-04-05T09:30:45;99775.59;;;16.78;26.84
73103;BME280;61294;65.988;29.172;2023-04-05T09:33:17;99751.22;;;17.71;25.92
73103;BME280;61294;65.988;29.172;2023-04-05T09:35:43;99755.41;;;17.87;26.73
73103;BME280;61294;65.988;29.172;2023-04-05T09:38:08;99774.25;;;19.20;26.10
73103;BME280;61294;65.988;29.172;2023-04-05T09:40:43;99770.47;;;18.41;24.87
73103;BME280;61294;65.988;29.172;2023-04-05T09:43:38;99757.94;;;16.70;26.87
73103;BME280;61294;65.988;29.172;2023-04-05T09:46:04;99775.31;;;17.01;25.55
73103;BME280;61294;65.988;29.172;2023-04-05T09:48:47;99763.31;;;17.93;25.09
73103;BME280;61294;65.988;29.172;2023-04-05T09:51:14;99772.94;;;15.87;26.33
73103;BME280;61294;65.988;29.172;2023-04-05T09:53:57;99782.88;;;15.58;27.47
73103;BME280;61294;65.988;29.172;2023-04-05T09:56:25;99779.84;;;16.07;27.81
73103;BME280;61294;65.988;29.172;2023-04-05T09:58:51;99772.28;;;15.51;27.49
73103;BME280;61294;65.988;29.172;2023-04-05T10:01:18;99774.38;;;16.26;26.90
73103;BME280;61294;65.988;29.172;2023-04-05T10:03:50;99782.00;;;15.57;27.33
73103;BME280;61294;65.988;29.172;2023-04-05T10:06:16;99775.41;;;14.51;28.18
73103;BME280;61294;65.988;29.172;2023-04-05T10:08:41;99771.84;;;14.63;27.97
73103;BME280;61294;65.988;29.172;2023-04-05T10:11:07;99787.00;;;15.99;27.96
73103;BME280;61294;65.988;29.172;2023-04-05T10:13:35;99786.94;;;14.11;28.68
73103;BME280;61294;65.988;29.172;2023-04-05T10:16:05;99791.91;;;12.74;29.92
73103;BME280;61294;65.988;29.172;2023-04-05T10:18:40;99798.09;;;11.53;30.80
73103;BME280;61294;65.988;29.172;2023-04-05T10:21:10;99794.16;;;12.06;32.14
73103;BME280;61294;65.988;29.172;2023-04-05T10:23:42;99794.88;;;11.89;32.64
73103;BME280;61294;65.988;29.172;2023-04-05T10:26:36;99770.56;;;12.34;32.25
73103;BME280;61294;65.988;29.172;2023-04-05T10:29:11;99800.19;;;14.18;29.53
73103;BME280;61294;65.988;29.172;2023-04-05T10:31:49;99801.06;;;13.79;29.22
73103;BME280;61294;65.988;29.172;2023-04-05T10:34:30;99790.47;;;13.69;29.79
73103;BME280;61294;65.988;29.172;2023-04-05T10:37:02;99790.47;;;14.18;28.63
73103;BME280;61294;65.988;29.172;2023-04-05T10:39:37;99799.31;;;13.83;29.81
73103;BME280;61294;65.988;29.172;2023-04-05T10:44:38;99810.56;;;15.12;28.39
73103;BME280;61294;65.988;29.172;2023-04-05T10:47:06;99807.00;;;15.16;27.56
73103;BME280;61294;65.988;29.172;2023-04-05T10:49:42;99814.25;;;14.69;29.21
73103;BME280;61294;65.988;29.172;2023-04-05T10:52:09;99804.47;;;16.29;27.82
73103;BME280;61294;65.988;29.172;2023-04-05T10:54:35;99797.66;;;19.07;23.32
73103;BME280;61294;65.988;29.172;2023-04-05T10:57:05;99799.50;;;18.57;24.91
73103;BME280;61294;65.988;29.172;2023-04-05T10:59:33;99794.28;;;18.02;23.02
73103;BME280;61294;65.988;29.172;2023-04-05T11:02:01;99811.19;;;18.51;23.84
73103;BME280;61294;65.988;29.172;2023-04-05T11:04:27;99818.53;;;18.40;24.58
73103;BME280;61294;65.988;29.172;2023-04-05T11:07:13;99805.69;;;19.07;23.42
73103;BME280;61294;65.988;29.172;2023-04-05T11:09:51;99812.56;;;17.68;25.02
73103;BME280;61294;65.988;29.172;2023-04-05T11:12:18;99814.78;;;16.62;26.13
73103;BME280;61294;65.988;29.172;2023-04-05T11:14:44;99808.44;;;17.47;25.39
73103;BME280;61294;65.988;29.172;2023-04-05T11:17:36;99796.94;;;17.45;23.52
73103;BME280;61294;65.988;29.172;2023-04-05T11:20:05;99815.63;;;15.60;25.36
73103;BME280;61294;65.988;29.172;2023-04-05T11:22:35;99814.13;;;15.03;27.31
73103;BME280;61294;65.988;29.172;2023-04-05T11:25:01;99795.72;;;14.47;27.20
73103;BME280;61294;65.988;29.172;2023-04-05T11:27:33;99818.72;;;14.30;27.78
73103;BME280;61294;65.988;29.172;2023-04-05T11:30:03;99815.56;;;15.70;25.79
73103;BME280;61294;65.988;29.172;2023-04-05T11:32:43;99809.31;;;16.74;24.51
73103;BME280;61294;65.988;29.172;2023-04-05T11:35:17;99813.16;;;17.26;25.75
73103;BME280;61294;65.988;29.172;2023-04-05T11:40:35;99818.09;;;17.54;24.40
73103;BME280;61294;65.988;29.172;2023-04-05T11:43:05;99818.03;;;17.60;25.03
73103;BME280;61294;65.988;29.172;2023-04-05T11:45:33;99818.44;;;17.93;24.65
73103;BME280;61294;65.988;29.172;2023-04-05T11:48:10;99814.50;;;19.91;24.61
73103;BME280;61294;65.988;29.172;2023-04-05T11:50:37;99820.00;;;18.56;25.04
73103;BME280;61294;65.988;29.172;2023-04-05T11:53:13;99817.84;;;18.28;22.94
73103;BME280;61294;65.988;29.172;2023-04-05T11:55:41;99804.78;;;17.52;23.46
73103;BME280;61294;65.988;29.172;2023-04-05T11:58:12;99821.34;;;18.31;25.06
73103;BME280;61294;65.988;29.172;2023-04-05T12:00:39;99814.13;;;19.28;24.84
73103;BME280;61294;65.988;29.172;2023-04-05T12:03:05;99807.41;;;19.51;22.33
73103;BME280;61294;65.988;29.172;2023-04-05T12:05:47;99806.13;;;21.66;22.12
73103;BME280;61294;65.988;29.172;2023-04-05T12:08:13;99802.97;;;21.52;21.96
73103;BME280;61294;65.988;29.172;2023-04-05T12:10:39;99793.19;;;21.21;22.04
73103;BME280;61294;65.988;29.172;2023-04-05T12:13:05;99788.59;;;19.94;21.72
73103;BME280;61294;65.988;29.172;2023-04-05T12:15:30;99801.63;;;19.69;23.33
73103;BME280;61294;65.988;29.172;2023-04-05T12:18:00;99796.41;;;18.80;24.12
73103;BME280;61294;65.988;29.172;2023-04-05T12:20:26;99786.31;;;18.51;24.47
73103;BME280;61294;65.988;29.172;2023-04-05T12:22:54;99803.88;;;16.88;25.52
73103;BME280;61294;65.988;29.172;2023-04-05T12:25:21;99803.56;;;17.13;25.37
73103;BME280;61294;65.988;29.172;2023-04-05T12:27:47;99792.81;;;17.20;26.05
73103;BME280;61294;65.988;29.172;2023-04-05T12:30:21;99811.59;;;14.52;26.36
73103;BME280;61294;65.988;29.172;2023-04-05T12:33:06;99801.56;;;15.42;27.04
73103;BME280;61294;65.988;29.172;2023-04-05T12:35:35;99810.72;;;14.69;30.34
73103;BME280;61294;65.988;29.172;2023-04-05T12:38:04;99802.78;;;14.70;29.74
73103;BME280;61294;65.988;29.172;2023-04-05T12:40:34;99814.78;;;15.51;29.04
73103;BME280;61294;65.988;29.172;2023-04-05T12:43:05;99810.38;;;15.52;29.95
73103;BME280;61294;65.988;29.172;2023-04-05T12:45:32;99804.50;;;14.77;27.02
73103;BME280;61294;65.988;29.172;2023-04-05T12:48:22;99804.63;;;13.97;28.73
73103;BME280;61294;65.988;29.172;2023-04-05T12:50:50;99804.59;;;14.03;27.67
73103;BME280;61294;65.988;29.172;2023-04-05T12:53:18;99786.94;;;14.25;29.71
73103;BME280;61294;65.988;29.172;2023-04-05T12:55:55;99801.06;;;14.35;30.88
73103;BME280;61294;65.988;29.172;2023-04-05T12:58:33;99806.31;;;14.58;29.72
73103;BME280;61294;65.988;29.172;2023-04-05T13:00:59;99817.56;;;12.87;29.39
73103;BME280;61294;65.988;29.172;2023-04-05T13:03:26;99809.72;;;13.13;29.76
73103;BME280;61294;65.988;29.172;2023-04-05T13:05:52;99809.72;;;13.13;32.66